sensor_id;sensor_type;location;lat;lon;timestamp;temperature;humidity
6008;DHT22;3032;49.484;11.112;2023-04-25T00:00:50;10.90;99.90
6008;DHT22;3032;49.484;11.112;2023-04-25T00:03:17;10.80;99.90
6008;DHT22;3032;49.484;11.112;2023-04-25T00:05:43;10.80;99.90
6008;DHT22;3032;49.484;11.112;2023-04-25T00:08:09;10.60;99.90
6008;DHT22;3032;49.484;11.112;2023-04-25T00:10:35;10.80;99.90
6008;DHT22;3032;49.484;11.112;2023-04-25T00:13:00;10.80;99.90
6008;DHT22;3032;49.484;11.112;2023-04-25T00:15:28;10.90;99.90
6008;DHT22;3032;49.484;11.112;2023-04-25T00:17:56;10.90;99.90
6008;DHT22;3032;49.484;11.112;2023-04-25T00:20:22;11.10;99.90
6008;DHT22;3032;49.484;11.112;2023-04-25T00:22:49;11.00;99.90
6008;DHT22;3032;49.484;11.112;2023-04-25T00:25:14;11.00;99.90
6008;DHT22;3032;49.484;11.112;2023-04-25T00:27:40;11.00;99.90
6008;DHT22;3032;49.484;11.112;2023-04-25T00:30:07;11.10;99.90
6008;DHT22;3032;49.484;11.112;2023-04-25T00:32:33;10.80;99.90
6008;DHT22;3032;49.484;11.112;2023-04-25T00:34:59;10.60;99.90
6008;DHT22;3032;49.484;11.112;2023-04-25T00:37:24;10.70;99.90
6008;DHT22;3032;49.484;11.112;2023-04-25T00:39:50;10.80;99.90
6008;DHT22;3032;49.484;11.112;2023-04-25T00:42:16;10.90;99.90
6008;DHT22;3032;49.484;11.112;2023-04-25T00:44:43;11.00;99.90
6008;DHT22;3032;49.484;11.112;2023-04-25T00:47:08;11.30;99.90
6008;DHT22;3032;49.484;11.112;2023-04-25T00:49:36;11.30;99.90
6008;DHT22;3032;49.484;11.112;2023-04-25T00:52:01;11.30;99.90
6008;DHT22;3032;49.484;11.112;2023-04-25T00:54:27;11.20;99.90
6008;DHT22;3032;49.484;11.112;2023-04-25T00:56:53;11.20;99.90
6008;DHT22;3032;49.484;11.112;2023-04-25T00:59:19;11.30;99.90
6008;DHT22;3032;49.484;11.112;2023-04-25T01:01:45;11.30;99.90
6008;DHT22;3032;49.484;11.112;2023-04-25T01:04:11;11.30;99.90
6008;DHT22;3032;49.484;11.112;2023-04-25T01:06:37;11.30;99.90
6008;DHT22;3032;49.484;11.112;2023-04-25T01:09:03;11.40;99.90
6008;DHT22;3032;49.484;11.112;2023-04-25T01:11:30;11.40;99.90
6008;DHT22;3032;49.484;11.112;2023-04-25T01:13:55;11.30;99.90
6008;DHT22;3032;49.484;11.112;2023-04-25T01:16:22;11.40;99.90
6008;DHT22;3032;49.484;11.112;2023-04-25T01:18:49;11.10;99.90
6008;DHT22;3032;49.484;11.112;2023-04-25T01:21:16;11.00;99.90
6008;DHT22;3032;49.484;11.112;2023-04-25T01:23:42;11.10;99.90
6008;DHT22;3032;49.484;11.112;2023-04-25T01:26:09;11.00;99.90
6008;DHT22;3032;49.484;11.112;2023-04-25T01:28:35;10.90;99.90
6008;DHT22;3032;49.484;11.112;2023-04-25T01:31:02;11.00;99.90
6008;DHT22;3032;49.484;11.112;2023-04-25T01:33:30;11.00;99.90
6008;DHT22;3032;49.484;11.112;2023-04-25T01:35:55;11.00;99.90
6008;DHT22;3032;49.484;11.112;2023-04-25T01:38:21;10.80;99.90
6008;DHT22;3032;49.484;11.112;2023-04-25T01:40:46;10.80;99.90
6008;DHT22;3032;49.484;11.112;2023-04-25T01:43:14;10.90;99.90
6008;DHT22;3032;49.484;11.112;2023-04-25T01:45:41;11.20;99.90
6008;DHT22;3032;49.484;11.112;2023-04-25T01:48:12;11.20;99.90
6008;DHT22;3032;49.484;11.112;2023-04-25T01:50:38;11.20;99.90
6008;DHT22;3032;49.484;11.112;2023-04-25T01:53:04;11.20;99.90
6008;DHT22;3032;49.484;11.112;2023-04-25T01:55:30;11.10;99.90
6008;DHT22;3032;49.484;11.112;2023-04-25T01:57:56;10.90;99.90
6008;DHT22;3032;49.484;11.112;2023-04-25T02:00:22;10.80;99.90
6008;DHT22;3032;49.484;11.112;2023-04-25T02:02:48;10.90;99.90
6008;DHT22;3032;49.484;11.112;2023-04-25T02:05:16;11.00;99.90
6008;DHT22;3032;49.484;11.112;2023-04-25T02:07:42;11.00;99.90
6008;DHT22;3032;49.484;11.112;2023-04-25T02:10:08;11.00;99.90
6008;DHT22;3032;49.484;11.112;2023-04-25T02:12:33;11.00;99.90
6008;DHT22;3032;49.484;11.112;2023-04-25T02:14:59;10.80;99.90
6008;DHT22;3032;49.484;11.112;2023-04-25T02:17:25;10.80;99.90
6008;DHT22;3032;49.484;11.112;2023-04-25T02:19:51;10.70;99.90
6008;DHT22;3032;49.484;11.112;2023-04-25T02:22:17;10.60;99.90
6008;DHT22;3032;49.484;11.112;2023-04-25T02:24:42;10.40;99.90
6008;DHT22;3032;49.484;11.112;2023-04-25T02:27:08;10.40;99.90
6008;DHT22;3032;49.484;11.112;2023-04-25T02:29:34;10.30;99.90
6008;DHT22;3032;49.484;11.112;2023-04-25T02:32:00;10.20;99.90
6008;DHT22;3032;49.484;11.112;2023-04-25T02:34:25;10.30;99.90
6008;DHT22;3032;49.484;11.112;2023-04-25T02:36:51;10.20;99.90
6008;DHT22;3032;49.484;11.112;2023-04-25T02:39:17;10.30;99.90
6008;DHT22;3032;49.484;11.112;2023-04-25T02:41:42;10.50;99.90
6008;DHT22;3032;49.484;11.112;2023-04-25T02:44:08;10.60;99.90
6008;DHT22;3032;49.484;11.112;2023-04-25T02:46:33;10.60;99.90
6008;DHT22;3032;49.484;11.112;2023-04-25T02:48:59;10.70;99.90
6008;DHT22;3032;49.484;11.112;2023-04-25T02:51:25;10.80;99.90
6008;DHT22;3032;49.484;11.112;2023-04-25T02:53:51;10.60;99.90
6008;DHT22;3032;49.484;11.112;2023-04-25T02:56:17;10.50;99.90
6008;DHT22;3032;49.484;11.112;2023-04-25T02:58:42;10.40;99.90
6008;DHT22;3032;49.484;11.112;2023-04-25T03:01:08;10.60;99.90
6008;DHT22;3032;49.484;11.112;2023-04-25T03:03:33;10.40;99.90
6008;DHT22;3032;49.484;11.112;2023-04-25T03:05:59;10.20;99.90
6008;DHT22;3032;49.484;11.112;2023-04-25T03:08:24;10.30;99.90
6008;DHT22;3032;49.484;11.112;2023-04-25T03:10:52;10.30;99.90
6008;DHT22;3032;49.484;11.112;2023-04-25T03:13:20;10.50;99.90
6008;DHT22;3032;49.484;11.112;2023-04-25T03:15:46;10.70;99.90
6008;DHT22;3032;49.484;11.112;2023-04-25T03:18:11;10.60;99.90
6008;DHT22;3032;49.484;11.112;2023-04-25T03:20:37;10.70;99.90
6008;DHT22;3032;49.484;11.112;2023-04-25T03:23:04;10.70;99.90
6008;DHT22;3032;49.484;11.112;2023-04-25T03:25:30;10.50;99.90
6008;DHT22;3032;49.484;11.112;2023-04-25T03:27:55;10.60;99.90
6008;DHT22;3032;49.484;11.112;2023-04-25T03:30:21;10.50;99.90
6008;DHT22;3032;49.484;11.112;2023-04-25T03:32:46;10.30;99.90
6008;DHT22;3032;49.484;11.112;2023-04-25T03:35:12;10.20;99.90
6008;DHT22;3032;49.484;11.112;2023-04-25T03:37:37;10.20;99.90
6008;DHT22;3032;49.484;11.112;2023-04-25T03:40:03;10.30;99.90
6008;DHT22;3032;49.484;11.112;2023-04-25T03:42:29;10.30;99.90
6008;DHT22;3032;49.484;11.112;2023-04-25T03:44:55;10.00;99.90
6008;DHT22;3032;49.484;11.112;2023-04-25T03:47:20;10.00;99.90
6008;DHT22;3032;49.484;11.112;2023-04-25T03:49:46;9.80;99.90
6008;DHT22;3032;49.484;11.112;2023-04-25T03:52:11;9.80;99.90
6008;DHT22;3032;49.484;11.112;2023-04-25T03:54:37;9.80;99.90
6008;DHT22;3032;49.484;11.112;2023-04-25T03:57:03;9.80;99.90
6008;DHT22;3032;49.484;11.112;2023-04-25T03:59:28;9.70;99.90
6008;DHT22;3032;49.484;11.112;2023-04-25T04:01:54;9.60;99.90
6008;DHT22;3032;49.484;11.112;2023-04-25T04:04:20;9.50;99.90
6008;DHT22;3032;49.484;11.112;2023-04-25T04:06:45;9.60;99.90
6008;DHT22;3032;49.484;11.112;2023-04-25T04:09:11;9.70;99.90
6008;DHT22;3032;49.484;11.112;2023-04-25T04:11:38;9.70;99.90
6008;DHT22;3032;49.484;11.112;2023-04-25T04:14:07;9.70;99.90
6008;DHT22;3032;49.484;11.112;2023-04-25T04:16:33;9.60;99.90
6008;DHT22;3032;49.484;11.112;2023-04-25T04:18:58;9.60;99.90
6008;DHT22;3032;49.484;11.112;2023-04-25T04:21:24;9.70;99.90
6008;DHT22;3032;49.484;11.112;2023-04-25T04:23:50;9.80;99.90
6008;DHT22;3032;49.484;11.112;2023-04-25T04:26:15;9.80;99.90
6008;DHT22;3032;49.484;11.112;2023-04-25T04:28:44;9.90;99.90
6008;DHT22;3032;49.484;11.112;2023-04-25T04:31:10;9.90;99.90
6008;DHT22;3032;49.484;11.112;2023-04-25T04:33:36;10.50;99.90
6008;DHT22;3032;49.484;11.112;2023-04-25T04:36:02;10.20;99.90
6008;DHT22;3032;49.484;11.112;2023-04-25T04:38:29;10.30;99.90
6008;DHT22;3032;49.484;11.112;2023-04-25T04:40:55;10.10;99.90
6008;DHT22;3032;49.484;11.112;2023-04-25T04:43:21;10.10;99.90
6008;DHT22;3032;49.484;11.112;2023-04-25T04:45:48;10.00;99.90
6008;DHT22;3032;49.484;11.112;2023-04-25T04:48:15;9.80;99.90
6008;DHT22;3032;49.484;11.112;2023-04-25T04:50:43;9.80;99.90
6008;DHT22;3032;49.484;11.112;2023-04-25T04:53:10;9.70;99.90
6008;DHT22;3032;49.484;11.112;2023-04-25T04:55:36;9.50;99.90
6008;DHT22;3032;49.484;11.112;2023-04-25T04:58:01;9.50;99.90
6008;DHT22;3032;49.484;11.112;2023-04-25T05:00:27;9.40;99.90
6008;DHT22;3032;49.484;11.112;2023-04-25T05:02:55;9.40;99.90
6008;DHT22;3032;49.484;11.112;2023-04-25T05:05:20;9.50;99.90
6008;DHT22;3032;49.484;11.112;2023-04-25T05:07:46;9.60;99.90
6008;DHT22;3032;49.484;11.112;2023-04-25T05:10:11;9.50;99.90
6008;DHT22;3032;49.484;11.112;2023-04-25T05:12:37;9.40;99.90
6008;DHT22;3032;49.484;11.112;2023-04-25T05:15:03;9.60;99.90
6008;DHT22;3032;49.484;11.112;2023-04-25T05:17:28;9.50;99.90
6008;DHT22;3032;49.484;11.112;2023-04-25T05:19:54;9.70;99.90
6008;DHT22;3032;49.484;11.112;2023-04-25T05:22:19;9.50;99.90
6008;DHT22;3032;49.484;11.112;2023-04-25T05:24:45;9.60;99.90
6008;DHT22;3032;49.484;11.112;2023-04-25T05:27:11;9.80;99.90
6008;DHT22;3032;49.484;11.112;2023-04-25T05:29:36;9.70;99.90
6008;DHT22;3032;49.484;11.112;2023-04-25T05:32:02;9.70;99.90
6008;DHT22;3032;49.484;11.112;2023-04-25T05:34:27;9.70;99.90
6008;DHT22;3032;49.484;11.112;2023-04-25T05:36:53;9.80;99.90
6008;DHT22;3032;49.484;11.112;2023-04-25T05:39:18;9.80;99.90
6008;DHT22;3032;49.484;11.112;2023-04-25T05:41:44;9.80;99.90
6008;DHT22;3032;49.484;11.112;2023-04-25T05:44:10;9.80;99.90
6008;DHT22;3032;49.484;11.112;2023-04-25T05:46:36;10.10;99.90
6008;DHT22;3032;49.484;11.112;2023-04-25T05:49:01;10.20;99.90
6008;DHT22;3032;49.484;11.112;2023-04-25T05:51:27;10.20;99.90
6008;DHT22;3032;49.484;11.112;2023-04-25T05:53:53;10.20;99.90
6008;DHT22;3032;49.484;11.112;2023-04-25T05:56:18;10.20;99.90
6008;DHT22;3032;49.484;11.112;2023-04-25T05:58:44;10.10;99.90
6008;DHT22;3032;49.484;11.112;2023-04-25T06:01:10;10.10;99.90
6008;DHT22;3032;49.484;11.112;2023-04-25T06:03:35;10.10;99.90
6008;DHT22;3032;49.484;11.112;2023-04-25T06:06:03;10.10;99.90
6008;DHT22;3032;49.484;11.112;2023-04-25T06:08:28;10.10;99.90
6008;DHT22;3032;49.484;11.112;2023-04-25T06:10:54;10.20;99.90
6008;DHT22;3032;49.484;11.112;2023-04-25T06:13:20;10.00;99.90
6008;DHT22;3032;49.484;11.112;2023-04-25T06:15:46;9.90;99.90
6008;DHT22;3032;49.484;11.112;2023-04-25T06:18:11;9.90;99.90
6008;DHT22;3032;49.484;11.112;2023-04-25T06:20:37;9.70;99.90
6008;DHT22;3032;49.484;11.112;2023-04-25T06:23:02;9.80;99.90
6008;DHT22;3032;49.484;11.112;2023-04-25T06:25:28;9.90;99.90
6008;DHT22;3032;49.484;11.112;2023-04-25T06:27:53;9.90;99.90
6008;DHT22;3032;49.484;11.112;2023-04-25T06:30:19;10.10;99.90
6008;DHT22;3032;49.484;11.112;2023-04-25T06:32:47;10.20;99.90
6008;DHT22;3032;49.484;11.112;2023-04-25T06:35:13;10.20;99.90
6008;DHT22;3032;49.484;11.112;2023-04-25T06:37:38;10.40;99.90
6008;DHT22;3032;49.484;11.112;2023-04-25T06:40:05;10.50;99.90
6008;DHT22;3032;49.484;11.112;2023-04-25T06:42:30;10.70;99.90
6008;DHT22;3032;49.484;11.112;2023-04-25T06:44:56;10.90;99.90
6008;DHT22;3032;49.484;11.112;2023-04-25T06:47:21;11.20;99.90
6008;DHT22;3032;49.484;11.112;2023-04-25T06:49:47;11.60;99.90
6008;DHT22;3032;49.484;11.112;2023-04-25T06:52:12;11.40;99.90
6008;DHT22;3032;49.484;11.112;2023-04-25T06:54:38;11.70;99.90
6008;DHT22;3032;49.484;11.112;2023-04-25T06:57:03;11.70;99.90
6008;DHT22;3032;49.484;11.112;2023-04-25T06:59:29;11.60;99.90
6008;DHT22;3032;49.484;11.112;2023-04-25T07:01:55;11.60;99.90
6008;DHT22;3032;49.484;11.112;2023-04-25T07:04:20;11.50;99.90
6008;DHT22;3032;49.484;11.112;2023-04-25T07:06:46;11.80;99.90
6008;DHT22;3032;49.484;11.112;2023-04-25T07:09:13;12.00;99.90
6008;DHT22;3032;49.484;11.112;2023-04-25T07:11:39;12.30;99.90
6008;DHT22;3032;49.484;11.112;2023-04-25T07:14:04;12.40;99.90
6008;DHT22;3032;49.484;11.112;2023-04-25T07:16:30;12.60;99.90
6008;DHT22;3032;49.484;11.112;2023-04-25T07:18:55;12.50;99.90
6008;DHT22;3032;49.484;11.112;2023-04-25T07:21:21;12.10;99.90
6008;DHT22;3032;49.484;11.112;2023-04-25T07:23:47;11.60;99.90
6008;DHT22;3032;49.484;11.112;2023-04-25T07:26:12;10.90;99.90
6008;DHT22;3032;49.484;11.112;2023-04-25T07:28:38;10.90;99.90
6008;DHT22;3032;49.484;11.112;2023-04-25T07:31:04;10.90;99.90
6008;DHT22;3032;49.484;11.112;2023-04-25T07:33:30;10.60;99.90
6008;DHT22;3032;49.484;11.112;2023-04-25T07:35:56;10.50;99.90
6008;DHT22;3032;49.484;11.112;2023-04-25T07:38:22;10.50;99.90
6008;DHT22;3032;49.484;11.112;2023-04-25T07:40:48;10.40;99.90
6008;DHT22;3032;49.484;11.112;2023-04-25T07:43:14;10.30;99.90
6008;DHT22;3032;49.484;11.112;2023-04-25T07:45:42;10.30;99.90
6008;DHT22;3032;49.484;11.112;2023-04-25T07:48:08;10.30;99.90
6008;DHT22;3032;49.484;11.112;2023-04-25T07:50:34;10.50;99.90
6008;DHT22;3032;49.484;11.112;2023-04-25T07:52:59;10.70;99.90
6008;DHT22;3032;49.484;11.112;2023-04-25T07:55:25;10.60;99.90
6008;DHT22;3032;49.484;11.112;2023-04-25T07:57:51;10.60;99.90
6008;DHT22;3032;49.484;11.112;2023-04-25T08:00:17;10.70;99.90
6008;DHT22;3032;49.484;11.112;2023-04-25T08:02:43;11.00;99.90
6008;DHT22;3032;49.484;11.112;2023-04-25T08:05:08;11.40;99.90
6008;DHT22;3032;49.484;11.112;2023-04-25T08:07:40;11.70;99.90
6008;DHT22;3032;49.484;11.112;2023-04-25T08:10:07;11.60;99.90
6008;DHT22;3032;49.484;11.112;2023-04-25T08:12:33;11.40;99.90
6008;DHT22;3032;49.484;11.112;2023-04-25T08:14:58;11.30;99.90
6008;DHT22;3032;49.484;11.112;2023-04-25T08:17:24;11.50;99.90
6008;DHT22;3032;49.484;11.112;2023-04-25T08:19:49;11.70;99.90
6008;DHT22;3032;49.484;11.112;2023-04-25T08:22:15;11.80;99.90
6008;DHT22;3032;49.484;11.112;2023-04-25T08:24:41;11.90;99.90
6008;DHT22;3032;49.484;11.112;2023-04-25T08:27:07;11.90;99.90
6008;DHT22;3032;49.484;11.112;2023-04-25T08:29:33;11.80;99.90
6008;DHT22;3032;49.484;11.112;2023-04-25T08:31:59;12.20;99.90
6008;DHT22;3032;49.484;11.112;2023-04-25T08:34:24;12.50;99.90
6008;DHT22;3032;49.484;11.112;2023-04-25T08:36:51;12.80;99.90
6008;DHT22;3032;49.484;11.112;2023-04-25T08:39:16;13.10;99.90
6008;DHT22;3032;49.484;11.112;2023-04-25T08:41:42;13.60;99.90
6008;DHT22;3032;49.484;11.112;2023-04-25T08:44:10;14.50;99.90
6008;DHT22;3032;49.484;11.112;2023-04-25T08:46:38;15.30;99.90
6008;DHT22;3032;49.484;11.112;2023-04-25T08:49:07;16.50;99.90
6008;DHT22;3032;49.484;11.112;2023-04-25T08:51:33;17.70;99.90
6008;DHT22;3032;49.484;11.112;2023-04-25T08:54:11;19.80;99.90
6008;DHT22;3032;49.484;11.112;2023-04-25T08:56:43;20.10;95.90
6008;DHT22;3032;49.484;11.112;2023-04-25T08:59:09;19.80;95.40
6008;DHT22;3032;49.484;11.112;2023-04-25T09:01:35;19.50;96.10
6008;DHT22;3032;49.484;11.112;2023-04-25T09:04:01;19.70;96.30
6008;DHT22;3032;49.484;11.112;2023-04-25T09:06:28;18.40;95.40
6008;DHT22;3032;49.484;11.112;2023-04-25T09:08:54;17.80;96.40
6008;DHT22;3032;49.484;11.112;2023-04-25T09:11:20;17.30;96.80
6008;DHT22;3032;49.484;11.112;2023-04-25T09:13:45;17.00;97.50
6008;DHT22;3032;49.484;11.112;2023-04-25T09:16:11;16.70;98.30
6008;DHT22;3032;49.484;11.112;2023-04-25T09:18:37;16.50;97.90
6008;DHT22;3032;49.484;11.112;2023-04-25T09:21:09;15.40;99.90
6008;DHT22;3032;49.484;11.112;2023-04-25T09:23:46;15.40;99.90
6008;DHT22;3032;49.484;11.112;2023-04-25T09:26:17;16.60;99.90
6008;DHT22;3032;49.484;11.112;2023-04-25T09:28:43;18.40;98.50
6008;DHT22;3032;49.484;11.112;2023-04-25T09:31:12;20.40;94.30
6008;DHT22;3032;49.484;11.112;2023-04-25T09:33:37;21.90;93.10
6008;DHT22;3032;49.484;11.112;2023-04-25T09:36:06;23.60;90.00
6008;DHT22;3032;49.484;11.112;2023-04-25T09:38:40;24.30;89.00
6008;DHT22;3032;49.484;11.112;2023-04-25T09:41:07;25.00;75.40
6008;DHT22;3032;49.484;11.112;2023-04-25T09:43:32;25.00;71.80
6008;DHT22;3032;49.484;11.112;2023-04-25T09:45:58;25.20;75.10
6008;DHT22;3032;49.484;11.112;2023-04-25T09:48:26;25.70;67.30
6008;DHT22;3032;49.484;11.112;2023-04-25T09:51:09;24.50;67.30
6008;DHT22;3032;49.484;11.112;2023-04-25T09:53:40;23.50;65.70
6008;DHT22;3032;49.484;11.112;2023-04-25T09:56:08;24.40;70.30
6008;DHT22;3032;49.484;11.112;2023-04-25T09:58:35;24.40;68.70
6008;DHT22;3032;49.484;11.112;2023-04-25T10:01:09;25.10;66.50
6008;DHT22;3032;49.484;11.112;2023-04-25T10:03:37;25.30;66.50
6008;DHT22;3032;49.484;11.112;2023-04-25T10:06:08;25.50;62.80
6008;DHT22;3032;49.484;11.112;2023-04-25T10:08:35;24.70;59.40
6008;DHT22;3032;49.484;11.112;2023-04-25T10:11:03;23.20;62.40
6008;DHT22;3032;49.484;11.112;2023-04-25T10:13:32;22.80;65.30
6008;DHT22;3032;49.484;11.112;2023-04-25T10:15:59;23.00;63.60
6008;DHT22;3032;49.484;11.112;2023-04-25T10:18:27;22.60;64.00
6008;DHT22;3032;49.484;11.112;2023-04-25T10:20:54;21.50;62.40
6008;DHT22;3032;49.484;11.112;2023-04-25T10:23:21;21.40;62.70
6008;DHT22;3032;49.484;11.112;2023-04-25T10:25:49;22.60;62.00
6008;DHT22;3032;49.484;11.112;2023-04-25T10:28:15;23.50;57.80
6008;DHT22;3032;49.484;11.112;2023-04-25T10:31:00;24.50;59.80
6008;DHT22;3032;49.484;11.112;2023-04-25T10:33:39;25.20;55.20
6008;DHT22;3032;49.484;11.112;2023-04-25T10:36:10;25.00;52.70
6008;DHT22;3032;49.484;11.112;2023-04-25T10:38:36;25.50;53.50
6008;DHT22;3032;49.484;11.112;2023-04-25T10:41:04;25.90;55.10
6008;DHT22;3032;49.484;11.112;2023-04-25T10:43:41;25.30;53.40
6008;DHT22;3032;49.484;11.112;2023-04-25T10:46:26;24.00;53.80
6008;DHT22;3032;49.484;11.112;2023-04-25T10:48:54;22.60;55.00
6008;DHT22;3032;49.484;11.112;2023-04-25T10:51:33;21.60;55.70
6008;DHT22;3032;49.484;11.112;2023-04-25T10:56:29;22.20;58.70
6008;DHT22;3032;49.484;11.112;2023-04-25T10:59:06;23.20;56.60
6008;DHT22;3032;49.484;11.112;2023-04-25T11:01:43;24.00;55.00
6008;DHT22;3032;49.484;11.112;2023-04-25T11:04:28;24.40;54.80
6008;DHT22;3032;49.484;11.112;2023-04-25T11:09:24;24.70;54.40
6008;DHT22;3032;49.484;11.112;2023-04-25T11:11:54;24.40;54.10
6008;DHT22;3032;49.484;11.112;2023-04-25T11:14:20;22.90;53.80
6008;DHT22;3032;49.484;11.112;2023-04-25T11:16:47;22.00;55.70
6008;DHT22;3032;49.484;11.112;2023-04-25T11:19:12;20.90;57.10
6008;DHT22;3032;49.484;11.112;2023-04-25T11:21:38;20.90;56.90
6008;DHT22;3032;49.484;11.112;2023-04-25T11:24:04;20.70;58.20
6008;DHT22;3032;49.484;11.112;2023-04-25T11:26:30;20.40;57.20
6008;DHT22;3032;49.484;11.112;2023-04-25T11:28:59;19.50;56.60
6008;DHT22;3032;49.484;11.112;2023-04-25T11:31:29;19.40;56.20
6008;DHT22;3032;49.484;11.112;2023-04-25T11:33:57;19.80;57.50
6008;DHT22;3032;49.484;11.112;2023-04-25T11:36:24;20.80;59.40
6008;DHT22;3032;49.484;11.112;2023-04-25T11:38:51;20.70;59.40
6008;DHT22;3032;49.484;11.112;2023-04-25T11:41:17;19.70;59.50
6008;DHT22;3032;49.484;11.112;2023-04-25T11:43:43;18.80;60.80
6008;DHT22;3032;49.484;11.112;2023-04-25T11:46:09;18.30;62.70
6008;DHT22;3032;49.484;11.112;2023-04-25T11:51:04;18.10;63.70
6008;DHT22;3032;49.484;11.112;2023-04-25T11:53:30;18.60;63.60
6008;DHT22;3032;49.484;11.112;2023-04-25T11:55:55;19.80;62.70
6008;DHT22;3032;49.484;11.112;2023-04-25T11:58:21;20.00;60.50
6008;DHT22;3032;49.484;11.112;2023-04-25T12:00:47;20.10;59.00
6008;DHT22;3032;49.484;11.112;2023-04-25T12:03:12;20.00;59.00
6008;DHT22;3032;49.484;11.112;2023-04-25T12:05:38;20.30;58.90
6008;DHT22;3032;49.484;11.112;2023-04-25T12:08:15;21.30;58.60
6008;DHT22;3032;49.484;11.112;2023-04-25T12:10:43;21.10;57.70
6008;DHT22;3032;49.484;11.112;2023-04-25T12:13:26;20.60;55.70
6008;DHT22;3032;49.484;11.112;2023-04-25T12:15:54;20.00;57.70
6008;DHT22;3032;49.484;11.112;2023-04-25T12:18:23;19.10;58.70
6008;DHT22;3032;49.484;11.112;2023-04-25T12:20:52;18.70;59.10
6008;DHT22;3032;49.484;11.112;2023-04-25T12:23:25;18.80;59.40
6008;DHT22;3032;49.484;11.112;2023-04-25T12:25:51;18.50;60.20
6008;DHT22;3032;49.484;11.112;2023-04-25T12:28:25;18.30;59.50
6008;DHT22;3032;49.484;11.112;2023-04-25T12:31:01;18.10;61.20
6008;DHT22;3032;49.484;11.112;2023-04-25T12:33:35;18.30;61.10
6008;DHT22;3032;49.484;11.112;2023-04-25T12:36:01;18.10;61.20
6008;DHT22;3032;49.484;11.112;2023-04-25T12:38:37;18.60;59.90
6008;DHT22;3032;49.484;11.112;2023-04-25T12:41:02;19.20;60.10
6008;DHT22;3032;49.484;11.112;2023-04-25T12:43:28;19.40;59.40
6008;DHT22;3032;49.484;11.112;2023-04-25T12:45:55;19.20;58.70
6008;DHT22;3032;49.484;11.112;2023-04-25T12:48:21;18.70;58.90
6008;DHT22;3032;49.484;11.112;2023-04-25T12:50:48;17.90;60.40
6008;DHT22;3032;49.484;11.112;2023-04-25T12:53:15;17.30;62.40
6008;DHT22;3032;49.484;11.112;2023-04-25T12:55:41;17.10;62.80
6008;DHT22;3032;49.484;11.112;2023-04-25T12:58:07;16.60;61.80
6008;DHT22;3032;49.484;11.112;2023-04-25T13:00:33;16.40;62.90
6008;DHT22;3032;49.484;11.112;2023-04-25T13:02:58;16.30;63.80
6008;DHT22;3032;49.484;11.112;2023-04-25T13:05:25;16.10;64.20
6008;DHT22;3032;49.484;11.112;2023-04-25T13:07:51;16.20;64.80
6008;DHT22;3032;49.484;11.112;2023-04-25T13:10:17;16.60;65.00
6008;DHT22;3032;49.484;11.112;2023-04-25T13:12:43;17.10;64.70
6008;DHT22;3032;49.484;11.112;2023-04-25T13:15:09;17.60;64.10
6008;DHT22;3032;49.484;11.112;2023-04-25T13:17:37;18.10;63.70
6008;DHT22;3032;49.484;11.112;2023-04-25T13:20:06;18.70;62.40
6008;DHT22;3032;49.484;11.112;2023-04-25T13:22:37;19.00;62.20
6008;DHT22;3032;49.484;11.112;2023-04-25T13:25:04;19.10;61.70
6008;DHT22;3032;49.484;11.112;2023-04-25T13:27:30;19.20;61.50
6008;DHT22;3032;49.484;11.112;2023-04-25T13:29:58;19.30;61.80
6008;DHT22;3032;49.484;11.112;2023-04-25T13:32:23;18.60;59.00
6008;DHT22;3032;49.484;11.112;2023-04-25T13:34:50;17.70;59.70
6008;DHT22;3032;49.484;11.112;2023-04-25T13:37:16;17.70;62.10
6008;DHT22;3032;49.484;11.112;2023-04-25T13:39:41;17.30;63.30
6008;DHT22;3032;49.484;11.112;2023-04-25T13:42:07;17.40;63.20
6008;DHT22;3032;49.484;11.112;2023-04-25T13:44:32;17.40;64.10
6008;DHT22;3032;49.484;11.112;2023-04-25T13:46:58;17.60;63.90
6008;DHT22;3032;49.484;11.112;2023-04-25T13:49:26;17.60;65.30
6008;DHT22;3032;49.484;11.112;2023-04-25T13:51:51;16.70;64.50
6008;DHT22;3032;49.484;11.112;2023-04-25T13:54:17;16.40;64.30
6008;DHT22;3032;49.484;11.112;2023-04-25T13:56:42;16.10;65.00
6008;DHT22;3032;49.484;11.112;2023-04-25T13:59:08;16.30;66.30
6008;DHT22;3032;49.484;11.112;2023-04-25T14:01:34;15.80;66.50
6008;DHT22;3032;49.484;11.112;2023-04-25T14:04:01;15.90;67.50
6008;DHT22;3032;49.484;11.112;2023-04-25T14:06:27;15.70;67.40
6008;DHT22;3032;49.484;11.112;2023-04-25T14:08:54;15.60;68.40
6008;DHT22;3032;49.484;11.112;2023-04-25T14:11:19;15.30;68.20
6008;DHT22;3032;49.484;11.112;2023-04-25T14:13:45;14.90;68.50
6008;DHT22;3032;49.484;11.112;2023-04-25T14:16:11;15.30;69.50
6008;DHT22;3032;49.484;11.112;2023-04-25T14:18:36;15.00;67.80
6008;DHT22;3032;49.484;11.112;2023-04-25T14:21:02;15.50;68.70
6008;DHT22;3032;49.484;11.112;2023-04-25T14:23:28;15.50;67.60
6008;DHT22;3032;49.484;11.112;2023-04-25T14:25:53;15.50;66.80
6008;DHT22;3032;49.484;11.112;2023-04-25T14:28:19;15.40;67.90
6008;DHT22;3032;49.484;11.112;2023-04-25T14:30:45;15.60;67.90
6008;DHT22;3032;49.484;11.112;2023-04-25T14:33:10;14.90;68.80
6008;DHT22;3032;49.484;11.112;2023-04-25T14:35:36;14.40;70.30
6008;DHT22;3032;49.484;11.112;2023-04-25T14:38:02;14.40;71.20
6008;DHT22;3032;49.484;11.112;2023-04-25T14:40:28;14.40;71.00
6008;DHT22;3032;49.484;11.112;2023-04-25T14:42:54;14.10;71.80
6008;DHT22;3032;49.484;11.112;2023-04-25T14:45:19;14.00;73.20
6008;DHT22;3032;49.484;11.112;2023-04-25T14:47:45;14.20;74.80
6008;DHT22;3032;49.484;11.112;2023-04-25T14:50:11;13.70;75.00
6008;DHT22;3032;49.484;11.112;2023-04-25T14:52:36;13.60;75.90
6008;DHT22;3032;49.484;11.112;2023-04-25T14:55:02;13.80;76.00
6008;DHT22;3032;49.484;11.112;2023-04-25T14:57:32;13.70;76.90
6008;DHT22;3032;49.484;11.112;2023-04-25T14:59:58;13.80;75.80
6008;DHT22;3032;49.484;11.112;2023-04-25T15:02:24;13.80;75.70
6008;DHT22;3032;49.484;11.112;2023-04-25T15:04:49;13.60;76.00
6008;DHT22;3032;49.484;11.112;2023-04-25T15:07:15;13.40;76.10
6008;DHT22;3032;49.484;11.112;2023-04-25T15:09:41;13.40;77.10
6008;DHT22;3032;49.484;11.112;2023-04-25T15:12:07;13.30;77.00
6008;DHT22;3032;49.484;11.112;2023-04-25T15:14:33;13.50;78.60
6008;DHT22;3032;49.484;11.112;2023-04-25T15:16:59;13.80;77.80
6008;DHT22;3032;49.484;11.112;2023-04-25T15:19:25;13.90;77.50
6008;DHT22;3032;49.484;11.112;2023-04-25T15:21:51;14.50;77.00
6008;DHT22;3032;49.484;11.112;2023-04-25T15:24:17;14.70;76.20
6008;DHT22;3032;49.484;11.112;2023-04-25T15:26:43;14.90;75.60
6008;DHT22;3032;49.484;11.112;2023-04-25T15:29:09;15.20;74.80
6008;DHT22;3032;49.484;11.112;2023-04-25T15:31:35;14.80;74.30
6008;DHT22;3032;49.484;11.112;2023-04-25T15:34:01;14.40;75.80
6008;DHT22;3032;49.484;11.112;2023-04-25T15:36:26;14.20;77.00
6008;DHT22;3032;49.484;11.112;2023-04-25T15:38:52;14.10;76.50
6008;DHT22;3032;49.484;11.112;2023-04-25T15:41:17;14.40;77.50
6008;DHT22;3032;49.484;11.112;2023-04-25T15:43:43;13.70;76.90
6008;DHT22;3032;49.484;11.112;2023-04-25T15:46:09;13.40;77.50
6008;DHT22;3032;49.484;11.112;2023-04-25T15:48:34;13.30;78.10
6008;DHT22;3032;49.484;11.112;2023-04-25T15:51:00;13.50;79.70